KFOT - Fortuna, California, USA
Updated: Tue, 31-Mar-2020 12:35pm PDT
Mostly Cloudy
Mostly Cloudy
 Wind from WNW
Wind: WNW 12 mph , 19 km/h
Temperature: 54°F , 12°C
Dew Point: 50°F , 10°C
Humidity: 88%
Barometer: 30.21 inHg , 1023 hPa
Clouds: Mostly Cloudy
Visibility: 8 miles , 13 km
Cloud details: Mostly Cloudy 900 ft
Mostly Cloudy 1400 ft
Mostly Cloudy 1900 ft
2020/03/31 19:35 KFOT 311935Z AUTO 30010KT 8SM BKN009 BKN014 BKN019 12/10 A3021 RMK AO1

Metar display script from Saratoga-Weather.org